If you wish to contribute or participate in the discussions about articles you are invited to join SKYbrary as a registered user

 Actions

Cassidy International Airport

From SKYbrary Wiki

PLCH
Airport
ICAO: PLCH – IATA: CXI
Summary
Name Cassidy International Airport
Region Asia and Pacific
Territory Line Islands US.gif
Location Banana, Kiritimati, Kiribati
Serving Kiribati
Coordinates 1° 59' 10.00" N, 157° 20' 59.00" W
Runways
Designator Length Width Surface ROPS
8/26 2103 m6,899.606 ft
30 m98.425 ft
ASP /


METAR
Observation PLCH 181400Z 00000KT 9999 SCT020 BKN042 27/24 Q1007
Station Christmas / Cassidy
Date/Time 18 July 2019 14:00:00
Wind direction
Wind speed 00 kts
Lowest cloud amount scattered clouds
Temperature 27°C
Dew point 24°C
Humidity 83%
QNH 1007 hPa
Weather condition n/a

Description

Cassidy International Airport is an airport located north of Banana, a settlement on Kiritimati (also known as Christmas Island) in Kiribati.